createdAt,value
2019-05-29T00:00:44.887Z,1007.88
2019-05-29T00:01:44.871Z,1007.87
2019-05-29T00:02:44.861Z,1007.88
2019-05-29T00:03:44.847Z,1007.90
2019-05-29T00:04:44.827Z,1007.94
2019-05-29T00:05:44.839Z,1007.99
2019-05-29T00:06:44.820Z,1007.96
2019-05-29T00:07:44.799Z,1008.04
2019-05-29T00:08:44.802Z,1007.98
2019-05-29T00:09:44.791Z,1007.99
2019-05-29T00:10:44.775Z,1007.97
2019-05-29T00:11:44.772Z,1008.00
2019-05-29T00:12:44.737Z,1008.00
2019-05-29T00:13:44.736Z,1008.01
2019-05-29T00:14:44.726Z,1008.00
2019-05-29T00:15:44.705Z,1008.00
2019-05-29T00:16:44.713Z,1008.02
2019-05-29T00:17:44.705Z,1007.96
2019-05-29T00:18:44.672Z,1008.04
2019-05-29T00:19:44.661Z,1008.04
2019-05-29T00:20:44.687Z,1008.09
2019-05-29T00:21:44.696Z,1008.11
2019-05-29T00:22:44.646Z,1008.11
2019-05-29T00:23:44.662Z,1008.12
2019-05-29T00:24:44.616Z,1008.19
2019-05-29T00:25:44.590Z,1008.14
2019-05-29T00:26:44.588Z,1008.14
2019-05-29T00:27:44.581Z,1008.11
2019-05-29T00:28:44.579Z,1008.10
2019-05-29T00:29:44.559Z,1008.16
2019-05-29T00:30:44.533Z,1008.11
2019-05-29T00:31:44.529Z,1008.17
2019-05-29T00:32:44.515Z,1008.11
2019-05-29T00:33:44.508Z,1008.18
2019-05-29T00:34:44.508Z,1008.18
2019-05-29T00:35:44.482Z,1008.12
2019-05-29T00:36:44.510Z,1008.17
2019-05-29T00:37:44.460Z,1008.22
2019-05-29T00:38:44.448Z,1008.17
2019-05-29T00:39:44.447Z,1008.16
2019-05-29T00:40:44.454Z,1008.21
2019-05-29T00:41:44.406Z,1008.17
2019-05-29T00:42:44.401Z,1008.20
2019-05-29T00:43:44.407Z,1008.23
2019-05-29T00:44:44.391Z,1008.17
2019-05-29T00:45:44.419Z,1008.18
2019-05-29T00:46:44.362Z,1008.20
2019-05-29T00:47:44.342Z,1008.14
2019-05-29T00:48:44.337Z,1008.18
2019-05-29T00:49:44.329Z,1008.21
2019-05-29T00:50:44.327Z,1008.18
2019-05-29T00:51:44.328Z,1008.19
2019-05-29T00:52:44.304Z,1008.27
2019-05-29T00:53:44.276Z,1008.23
2019-05-29T00:54:44.267Z,1008.27
2019-05-29T00:55:44.271Z,1008.22
2019-05-29T00:56:44.252Z,1008.33
2019-05-29T00:57:44.257Z,1008.34
2019-05-29T00:58:44.223Z,1008.31
2019-05-29T00:59:44.213Z,1008.32
2019-05-29T01:00:44.227Z,1008.33
2019-05-29T01:01:44.204Z,1008.29
2019-05-29T01:02:44.205Z,1008.33
2019-05-29T01:03:44.169Z,1008.31
2019-05-29T01:04:44.155Z,1008.35
2019-05-29T01:05:44.142Z,1008.36
2019-05-29T01:06:44.138Z,1008.45
2019-05-29T01:07:44.129Z,1008.40
2019-05-29T01:08:44.142Z,1008.39
2019-05-29T01:09:44.106Z,1008.35
2019-05-29T01:10:44.088Z,1008.37
2019-05-29T01:11:44.084Z,1008.35
2019-05-29T01:12:44.080Z,1008.43
2019-05-29T01:13:44.054Z,1008.40
2019-05-29T01:14:50.307Z,1008.46
2019-05-29T01:15:45.033Z,1008.41
2019-05-29T01:16:44.025Z,1008.47
2019-05-29T01:17:44.015Z,1008.51
2019-05-29T01:18:44.013Z,1008.52
2019-05-29T01:19:43.989Z,1008.51
2019-05-29T01:20:43.971Z,1008.57
2019-05-29T01:21:43.966Z,1008.62
2019-05-29T01:22:43.952Z,1008.57
2019-05-29T01:23:43.942Z,1008.62
2019-05-29T01:24:43.941Z,1008.65
2019-05-29T01:25:43.924Z,1008.64
2019-05-29T01:26:43.923Z,1008.69
2019-05-29T01:27:43.896Z,1008.63
2019-05-29T01:28:43.888Z,1008.68
2019-05-29T01:29:43.887Z,1008.74
2019-05-29T01:30:43.888Z,1008.84
2019-05-29T01:31:43.887Z,1008.77
2019-05-29T01:32:43.840Z,1008.80
2019-05-29T01:33:43.830Z,1008.75
2019-05-29T01:34:43.829Z,1008.74
2019-05-29T01:35:43.824Z,1008.81
2019-05-29T01:36:43.800Z,1008.82
2019-05-29T01:37:43.790Z,1008.76
2019-05-29T01:38:43.772Z,1008.79
2019-05-29T01:39:43.763Z,1008.82
2019-05-29T01:40:43.761Z,1008.80
2019-05-29T01:41:43.755Z,1008.85
2019-05-29T01:42:43.731Z,1008.85
2019-05-29T01:43:43.724Z,1008.86
2019-05-29T01:44:43.705Z,1008.91
2019-05-29T01:45:43.704Z,1008.95
2019-05-29T01:46:43.698Z,1009.08
2019-05-29T01:47:43.695Z,1009.05
2019-05-29T01:48:43.671Z,1009.06
2019-05-29T01:49:43.666Z,1009.12
2019-05-29T01:50:43.652Z,1009.15
2019-05-29T01:51:43.629Z,1009.15
2019-05-29T01:52:43.636Z,1009.21
2019-05-29T01:53:43.614Z,1009.18
2019-05-29T01:54:43.613Z,1009.20
2019-05-29T01:55:43.584Z,1009.18
2019-05-29T01:56:43.571Z,1009.17
2019-05-29T01:57:43.574Z,1009.20
2019-05-29T01:58:43.566Z,1009.22
2019-05-29T01:59:43.549Z,1009.22
2019-05-29T02:00:43.542Z,1009.21
2019-05-29T02:01:43.516Z,1009.23
2019-05-29T02:02:43.509Z,1009.27
2019-05-29T02:03:43.549Z,1009.23
2019-05-29T02:04:43.515Z,1009.27
2019-05-29T02:05:43.484Z,1009.21
2019-05-29T02:06:43.460Z,1009.24
2019-05-29T02:07:43.458Z,1009.24
2019-05-29T02:08:43.455Z,1009.24
2019-05-29T02:09:43.445Z,1009.26
2019-05-29T02:10:43.422Z,1009.29
2019-05-29T02:11:43.432Z,1009.23
2019-05-29T02:12:43.401Z,1009.22
2019-05-29T02:13:43.395Z,1009.16
2019-05-29T02:14:43.385Z,1009.26
2019-05-29T02:15:43.373Z,1009.25
2019-05-29T02:16:43.365Z,1009.33
2019-05-29T02:17:43.343Z,1009.36
2019-05-29T02:18:43.330Z,1009.38
2019-05-29T02:19:43.317Z,1009.35
2019-05-29T02:20:43.314Z,1009.34
2019-05-29T02:21:43.306Z,1009.39
2019-05-29T02:22:43.302Z,1009.34
2019-05-29T02:23:43.272Z,1009.37
2019-05-29T02:24:43.264Z,1009.45
2019-05-29T02:25:43.260Z,1009.40
2019-05-29T02:26:43.248Z,1009.49
2019-05-29T02:27:43.236Z,1009.44
2019-05-29T02:28:43.230Z,1009.44
2019-05-29T02:29:43.204Z,1009.45
2019-05-29T02:30:43.208Z,1009.41
2019-05-29T02:31:43.195Z,1009.43
2019-05-29T02:32:43.197Z,1009.44
2019-05-29T02:33:43.173Z,1009.50
2019-05-29T02:34:43.149Z,1009.49
2019-05-29T02:35:43.148Z,1009.48
2019-05-29T02:36:43.126Z,1009.54
2019-05-29T02:37:43.126Z,1009.53
2019-05-29T02:38:43.123Z,1009.46
2019-05-29T02:39:43.115Z,1009.50
2019-05-29T02:40:43.084Z,1009.53
2019-05-29T02:41:43.075Z,1009.57
2019-05-29T02:42:43.066Z,1009.53
2019-05-29T02:43:43.060Z,1009.53
2019-05-29T02:44:43.043Z,1009.58
2019-05-29T02:45:53.579Z,1009.56
2019-05-29T02:46:44.018Z,1009.59
2019-05-29T02:47:43.012Z,1009.56
2019-05-29T02:48:43.001Z,1009.56
2019-05-29T02:49:42.988Z,1009.59
2019-05-29T02:50:42.992Z,1009.68
2019-05-29T02:51:42.963Z,1009.74
2019-05-29T02:52:42.956Z,1009.74
2019-05-29T02:53:42.942Z,1009.73
2019-05-29T02:54:42.950Z,1009.74
2019-05-29T02:55:42.925Z,1009.76
2019-05-29T02:56:42.969Z,1009.79
2019-05-29T02:57:42.906Z,1009.76
2019-05-29T02:58:42.883Z,1009.80
2019-05-29T02:59:42.886Z,1009.78
2019-05-29T03:00:42.870Z,1009.83
2019-05-29T03:01:42.857Z,1009.85
2019-05-29T03:02:42.872Z,1009.79
2019-05-29T03:03:42.836Z,1009.82
2019-05-29T03:04:42.838Z,1009.86
2019-05-29T03:05:42.809Z,1009.85
2019-05-29T03:06:42.795Z,1009.85
2019-05-29T03:07:42.794Z,1009.86
2019-05-29T03:08:42.777Z,1009.95
2019-05-29T03:09:42.769Z,1009.89
2019-05-29T03:10:42.752Z,1009.95
2019-05-29T03:11:42.752Z,1009.95
2019-05-29T03:12:42.747Z,1009.92
2019-05-29T03:13:42.732Z,1009.96
2019-05-29T03:14:42.701Z,1010.00
2019-05-29T03:15:42.699Z,1010.00
2019-05-29T03:16:42.693Z,1010.07
2019-05-29T03:17:42.683Z,1010.06
2019-05-29T03:18:42.670Z,1010.17
2019-05-29T03:19:42.674Z,1010.13
2019-05-29T03:20:42.656Z,1010.16
2019-05-29T03:21:42.635Z,1010.26
2019-05-29T03:22:42.629Z,1010.21
2019-05-29T03:23:42.607Z,1010.21
2019-05-29T03:24:42.611Z,1010.26
2019-05-29T03:25:42.591Z,1010.25
2019-05-29T03:26:42.583Z,1010.33
2019-05-29T03:27:42.568Z,1010.34
2019-05-29T03:28:42.568Z,1010.36
2019-05-29T03:29:42.568Z,1010.33
2019-05-29T03:30:46.289Z,1010.38
2019-05-29T03:31:46.943Z,1010.36
2019-05-29T03:32:47.583Z,1010.39
2019-05-29T03:33:49.208Z,1010.46
2019-05-29T03:34:46.819Z,1010.45
2019-05-29T03:35:47.598Z,1010.43
2019-05-29T03:36:47.870Z,1010.46
2019-05-29T03:37:43.454Z,1010.48
2019-05-29T03:38:42.447Z,1010.54
2019-05-29T03:39:42.438Z,1010.55
2019-05-29T03:40:42.448Z,1010.55
2019-05-29T03:41:42.419Z,1010.54
2019-05-29T03:42:42.400Z,1010.58
2019-05-29T03:43:42.410Z,1010.55
2019-05-29T03:44:42.374Z,1010.56
2019-05-29T03:45:42.384Z,1010.60
2019-05-29T03:46:45.754Z,1010.65
2019-05-29T03:47:42.357Z,1010.68
2019-05-29T03:48:42.331Z,1010.71
2019-05-29T03:49:42.321Z,1010.69
2019-05-29T03:50:42.314Z,1010.74
2019-05-29T03:51:42.305Z,1010.83
2019-05-29T03:52:42.294Z,1010.88
2019-05-29T03:53:42.288Z,1010.89
2019-05-29T03:54:42.290Z,1010.92
2019-05-29T03:55:42.279Z,1010.93
2019-05-29T03:56:42.287Z,1010.89
2019-05-29T03:57:42.228Z,1010.99
2019-05-29T03:58:42.241Z,1010.99
2019-05-29T03:59:42.218Z,1010.98
2019-05-29T04:00:46.355Z,1011.02
2019-05-29T04:01:43.203Z,1011.04
2019-05-29T04:02:42.199Z,1011.01
2019-05-29T04:03:42.166Z,1010.99
2019-05-29T04:04:42.185Z,1011.06
2019-05-29T04:05:42.174Z,1011.03
2019-05-29T04:06:42.175Z,1011.12
2019-05-29T04:07:42.136Z,1011.13
2019-05-29T04:08:42.116Z,1011.17
2019-05-29T04:09:42.109Z,1011.14
2019-05-29T04:10:42.117Z,1011.25
2019-05-29T04:11:42.078Z,1011.22
2019-05-29T04:12:42.061Z,1011.24
2019-05-29T04:13:42.060Z,1011.24
2019-05-29T04:14:42.040Z,1011.32
2019-05-29T04:15:42.046Z,1011.26
2019-05-29T04:16:58.468Z,1011.26
2019-05-29T04:17:43.016Z,1011.30
2019-05-29T04:18:42.024Z,1011.30
2019-05-29T04:19:41.998Z,1011.32
2019-05-29T04:20:41.984Z,1011.34
2019-05-29T04:21:41.957Z,1011.33
2019-05-29T04:22:41.956Z,1011.36
2019-05-29T04:23:41.942Z,1011.37
2019-05-29T04:24:41.940Z,1011.38
2019-05-29T04:25:43.231Z,1011.41
2019-05-29T04:26:41.911Z,1011.41
2019-05-29T04:27:41.918Z,1011.41
2019-05-29T04:28:41.894Z,1011.46
2019-05-29T04:29:41.873Z,1011.43
2019-05-29T04:30:41.871Z,1011.41
2019-05-29T04:31:41.857Z,1011.43
2019-05-29T04:32:41.843Z,1011.55
2019-05-29T04:33:41.834Z,1011.57
2019-05-29T04:34:41.817Z,1011.52
2019-05-29T04:35:41.811Z,1011.56
2019-05-29T04:36:41.807Z,1011.60
2019-05-29T04:37:41.788Z,1011.60
2019-05-29T04:38:41.773Z,1011.51
2019-05-29T04:39:41.757Z,1011.58
2019-05-29T04:40:41.757Z,1011.64
2019-05-29T04:41:41.782Z,1011.61
2019-05-29T04:42:41.724Z,1011.63
2019-05-29T04:43:41.731Z,1011.61
2019-05-29T04:44:41.714Z,1011.69
2019-05-29T04:45:41.733Z,1011.74
2019-05-29T04:46:41.680Z,1011.70
2019-05-29T04:47:41.684Z,1011.68
2019-05-29T04:48:41.668Z,1011.66
2019-05-29T04:49:41.670Z,1011.74
2019-05-29T04:50:41.639Z,1011.73
2019-05-29T04:51:41.634Z,1011.72
2019-05-29T04:52:41.630Z,1011.79
2019-05-29T04:53:41.606Z,1011.85
2019-05-29T04:54:41.602Z,1011.82
2019-05-29T04:55:41.585Z,1011.80
2019-05-29T04:56:41.566Z,1011.83
2019-05-29T04:57:41.567Z,1011.82
2019-05-29T04:58:41.558Z,1011.82
2019-05-29T04:59:41.535Z,1011.82
2019-05-29T05:00:57.762Z,1011.82
2019-05-29T05:01:42.522Z,1011.85
2019-05-29T05:02:41.512Z,1011.87
2019-05-29T05:03:41.500Z,1011.86
2019-05-29T05:04:41.504Z,1011.96
2019-05-29T05:05:41.471Z,1011.90
2019-05-29T05:06:41.464Z,1011.95
2019-05-29T05:07:41.452Z,1011.89
2019-05-29T05:08:41.442Z,1011.99
2019-05-29T05:09:41.441Z,1011.95
2019-05-29T05:10:41.459Z,1012.03
2019-05-29T05:11:41.410Z,1012.00
2019-05-29T05:12:41.429Z,1012.03
2019-05-29T05:13:41.384Z,1012.08
2019-05-29T05:14:41.383Z,1012.12
2019-05-29T05:15:41.370Z,1012.15
2019-05-29T05:16:41.344Z,1012.22
2019-05-29T05:17:41.346Z,1012.16
2019-05-29T05:18:41.332Z,1012.26
2019-05-29T05:19:41.326Z,1012.23
2019-05-29T05:20:41.307Z,1012.25
2019-05-29T05:21:41.306Z,1012.24
2019-05-29T05:22:41.296Z,1012.22
2019-05-29T05:23:41.286Z,1012.27
2019-05-29T05:24:43.927Z,1012.29
2019-05-29T05:25:41.249Z,1012.31
2019-05-29T05:26:41.254Z,1012.26
2019-05-29T05:27:41.232Z,1012.31
2019-05-29T05:28:44.503Z,1012.29
2019-05-29T05:29:41.215Z,1012.30
2019-05-29T05:30:41.281Z,1012.36
2019-05-29T05:31:41.192Z,1012.32
2019-05-29T05:32:41.352Z,1012.37
2019-05-29T05:33:41.279Z,1012.36
2019-05-29T05:34:41.158Z,1012.39
2019-05-29T05:35:41.181Z,1012.36
2019-05-29T05:36:41.135Z,1012.40
2019-05-29T05:37:41.135Z,1012.48
2019-05-29T05:38:41.319Z,1012.40
2019-05-29T05:39:41.263Z,1012.43
2019-05-29T05:40:43.101Z,1012.49
2019-05-29T05:41:41.144Z,1012.41
2019-05-29T05:42:41.313Z,1012.52
2019-05-29T05:43:41.470Z,1012.53
2019-05-29T05:44:41.207Z,1012.59
2019-05-29T05:45:41.297Z,1012.55
2019-05-29T05:46:41.313Z,1012.52
2019-05-29T05:47:54.586Z,1012.57
2019-05-29T05:48:42.012Z,1012.57
2019-05-29T05:49:41.788Z,1012.64
2019-05-29T05:50:41.517Z,1012.58
2019-05-29T05:51:44.170Z,1012.73
2019-05-29T05:52:41.648Z,1012.64
2019-05-29T05:53:41.811Z,1012.74
2019-05-29T05:54:41.621Z,1012.68
2019-05-29T05:55:41.833Z,1012.73
2019-05-29T05:56:41.776Z,1012.68
2019-05-29T05:57:41.841Z,1012.75
2019-05-29T05:58:42.218Z,1012.68
2019-05-29T05:59:42.034Z,1012.70
2019-05-29T06:00:42.066Z,1012.74
2019-05-29T06:01:42.048Z,1012.79
2019-05-29T06:02:42.077Z,1012.78
2019-05-29T06:03:42.200Z,1012.84
2019-05-29T06:04:42.073Z,1012.90
2019-05-29T06:05:42.186Z,1012.90
2019-05-29T06:06:40.812Z,1012.96
2019-05-29T06:07:40.810Z,1012.99
2019-05-29T06:08:40.779Z,1013.07
2019-05-29T06:09:40.770Z,1013.04
2019-05-29T06:10:40.749Z,1013.07
2019-05-29T06:11:40.750Z,1013.10
2019-05-29T06:12:40.735Z,1013.07
2019-05-29T06:13:40.738Z,1013.09
2019-05-29T06:14:40.723Z,1013.07
2019-05-29T06:15:40.705Z,1013.16
2019-05-29T06:16:40.753Z,1013.18
2019-05-29T06:17:40.827Z,1013.17
2019-05-29T06:18:40.707Z,1013.15
2019-05-29T06:19:41.145Z,1013.08
2019-05-29T06:20:40.979Z,1013.09
2019-05-29T06:21:40.879Z,1013.12
2019-05-29T06:22:41.140Z,1013.13
2019-05-29T06:23:41.140Z,1013.19
2019-05-29T06:24:41.009Z,1013.21
2019-05-29T06:25:41.958Z,1013.22
2019-05-29T06:26:41.047Z,1013.21
2019-05-29T06:27:41.379Z,1013.19
2019-05-29T06:28:41.289Z,1013.18
2019-05-29T06:29:41.310Z,1013.21
2019-05-29T06:30:42.334Z,1013.20
2019-05-29T06:31:41.443Z,1013.21
2019-05-29T06:32:41.580Z,1013.25
2019-05-29T06:33:41.486Z,1013.27
2019-05-29T06:34:41.587Z,1013.20
2019-05-29T06:35:41.699Z,1013.32
2019-05-29T06:36:41.537Z,1013.31
2019-05-29T06:37:41.532Z,1013.30
2019-05-29T06:38:42.044Z,1013.35
2019-05-29T06:39:41.711Z,1013.34
2019-05-29T06:40:41.942Z,1013.33
2019-05-29T06:41:40.409Z,1013.36
2019-05-29T06:42:40.393Z,1013.40
2019-05-29T06:43:40.381Z,1013.42
2019-05-29T06:44:41.946Z,1013.45
2019-05-29T06:45:40.388Z,1013.38
2019-05-29T06:46:40.597Z,1013.36
2019-05-29T06:47:40.889Z,1013.40
2019-05-29T06:48:53.544Z,1013.44
2019-05-29T06:49:42.140Z,1013.45
2019-05-29T06:50:41.468Z,1013.44
2019-05-29T06:51:41.325Z,1013.52
2019-05-29T06:52:41.363Z,1013.48
2019-05-29T06:53:41.686Z,1013.52
2019-05-29T06:54:40.258Z,1013.53
2019-05-29T06:55:40.245Z,1013.58
2019-05-29T06:56:40.245Z,1013.58
2019-05-29T06:57:40.380Z,1013.60
2019-05-29T06:58:40.233Z,1013.59
2019-05-29T06:59:40.500Z,1013.56
2019-05-29T07:00:41.166Z,1013.56
2019-05-29T07:01:41.458Z,1013.54
2019-05-29T07:02:40.656Z,1013.59
2019-05-29T07:03:41.470Z,1013.55
2019-05-29T07:04:40.456Z,1013.58
2019-05-29T07:05:40.152Z,1013.58
2019-05-29T07:06:40.709Z,1013.63
2019-05-29T07:07:40.408Z,1013.68
2019-05-29T07:08:45.917Z,1013.72
2019-05-29T07:09:41.161Z,1013.71
2019-05-29T07:10:40.316Z,1013.69
2019-05-29T07:11:41.253Z,1013.72
2019-05-29T07:12:40.411Z,1013.69
2019-05-29T07:13:43.168Z,1013.72
2019-05-29T07:14:40.300Z,1013.75
2019-05-29T07:15:40.742Z,1013.76
2019-05-29T07:16:49.553Z,1013.77
2019-05-29T07:17:41.000Z,1013.85
2019-05-29T07:18:45.313Z,1013.80
2019-05-29T07:19:54.344Z,1013.80
2019-05-29T07:20:41.015Z,1013.84
2019-05-29T07:21:40.805Z,1013.91
2019-05-29T07:22:40.872Z,1013.94
2019-05-29T07:23:41.228Z,1013.93
2019-05-29T07:24:41.186Z,1013.95
2019-05-29T07:25:40.856Z,1013.96
2019-05-29T07:26:41.056Z,1013.97
2019-05-29T07:27:40.852Z,1013.96
2019-05-29T07:28:59.755Z,1013.96
2019-05-29T07:29:41.168Z,1013.94
2019-05-29T07:30:42.750Z,1014.01
2019-05-29T07:31:40.966Z,1014.04
2019-05-29T07:32:40.977Z,1014.01
2019-05-29T07:33:40.867Z,1014.07
2019-05-29T07:34:51.297Z,1014.01
2019-05-29T07:35:41.403Z,1014.02
2019-05-29T07:36:40.023Z,1014.03
2019-05-29T07:37:39.849Z,1014.07
2019-05-29T07:38:39.777Z,1014.16
2019-05-29T07:39:39.793Z,1014.16
2019-05-29T07:40:40.714Z,1014.17
2019-05-29T07:41:39.733Z,1014.11
2019-05-29T07:42:44.567Z,1014.14
2019-05-29T07:43:41.733Z,1014.14
2019-05-29T07:44:40.001Z,1014.17
2019-05-29T07:45:40.572Z,1014.09
2019-05-29T07:46:40.093Z,1014.12
2019-05-29T07:47:40.408Z,1014.15
2019-05-29T07:48:40.382Z,1014.16
2019-05-29T07:49:44.373Z,1014.17
2019-05-29T07:50:40.625Z,1014.22
2019-05-29T07:51:40.515Z,1014.18
2019-05-29T07:52:40.752Z,1014.19
2019-05-29T07:53:40.171Z,1014.13
2019-05-29T07:54:39.968Z,1014.14
2019-05-29T07:55:40.435Z,1014.06
2019-05-29T07:56:40.346Z,1014.09
2019-05-29T07:57:40.850Z,1014.20
2019-05-29T07:58:42.033Z,1014.18
2019-05-29T07:59:40.550Z,1014.30
2019-05-29T08:01:01.049Z,1014.33
2019-05-29T08:01:40.773Z,1014.24
2019-05-29T08:02:39.536Z,1014.26
2019-05-29T08:03:39.478Z,1014.27
2019-05-29T08:04:39.481Z,1014.32
2019-05-29T08:05:39.462Z,1014.39
2019-05-29T08:06:46.773Z,1014.35
2019-05-29T08:07:41.399Z,1014.37
2019-05-29T08:08:39.433Z,1014.42
2019-05-29T08:09:39.422Z,1014.37
2019-05-29T08:10:40.008Z,1014.44
2019-05-29T08:11:39.565Z,1014.39
2019-05-29T08:12:45.676Z,1014.30
2019-05-29T08:13:41.429Z,1014.41
2019-05-29T08:14:39.690Z,1014.41
2019-05-29T08:15:54.998Z,1014.38
2019-05-29T08:16:41.826Z,1014.43
2019-05-29T08:17:39.986Z,1014.39
2019-05-29T08:18:41.091Z,1014.51
2019-05-29T08:19:56.948Z,1014.47
2019-05-29T08:20:40.295Z,1014.44
2019-05-29T08:21:41.040Z,1014.40
2019-05-29T08:22:40.191Z,1014.44
2019-05-29T08:23:40.281Z,1014.47
2019-05-29T08:24:40.634Z,1014.47
2019-05-29T08:25:39.233Z,1014.50
2019-05-29T08:26:40.664Z,1014.54
2019-05-29T08:27:40.465Z,1014.46
2019-05-29T08:28:40.423Z,1014.40
2019-05-29T08:29:40.514Z,1014.49
2019-05-29T08:30:41.017Z,1014.51
2019-05-29T08:31:39.173Z,1014.55
2019-05-29T08:32:39.161Z,1014.60
2019-05-29T08:33:39.139Z,1014.49
2019-05-29T08:34:39.146Z,1014.56
2019-05-29T08:35:39.132Z,1014.46
2019-05-29T08:36:39.108Z,1014.51
2019-05-29T08:37:39.109Z,1014.41
2019-05-29T08:38:39.107Z,1014.53
2019-05-29T08:39:39.077Z,1014.52
2019-05-29T08:40:39.072Z,1014.54
2019-05-29T08:41:39.155Z,1014.69
2019-05-29T08:42:39.044Z,1014.62
2019-05-29T08:43:39.053Z,1014.72
2019-05-29T08:44:39.042Z,1014.64
2019-05-29T08:45:39.004Z,1014.69
2019-05-29T08:46:39.003Z,1014.71
2019-05-29T08:47:38.987Z,1014.73
2019-05-29T08:48:38.983Z,1014.71
2019-05-29T08:49:38.990Z,1014.74
2019-05-29T08:50:38.955Z,1014.73
2019-05-29T08:51:38.935Z,1014.73
2019-05-29T08:52:38.955Z,1014.74
2019-05-29T08:53:38.948Z,1014.80
2019-05-29T08:54:38.931Z,1014.78
2019-05-29T08:55:38.910Z,1014.71
2019-05-29T08:56:38.887Z,1014.78
2019-05-29T08:57:38.941Z,1014.83
2019-05-29T08:58:38.991Z,1014.79
2019-05-29T08:59:38.853Z,1014.82
2019-05-29T09:00:38.914Z,1014.74
2019-05-29T09:01:38.825Z,1014.83
2019-05-29T09:02:38.876Z,1014.82
2019-05-29T09:03:40.178Z,1014.74
2019-05-29T09:04:38.790Z,1014.78
2019-05-29T09:05:38.802Z,1014.78
2019-05-29T09:06:38.921Z,1014.76
2019-05-29T09:07:38.868Z,1014.85
2019-05-29T09:08:38.765Z,1014.93
2019-05-29T09:09:38.775Z,1014.99
2019-05-29T09:10:38.739Z,1014.93
2019-05-29T09:11:39.265Z,1014.93
2019-05-29T09:12:38.702Z,1014.97
2019-05-29T09:13:38.691Z,1014.95
2019-05-29T09:14:38.707Z,1014.94
2019-05-29T09:15:38.687Z,1014.90
2019-05-29T09:16:38.665Z,1014.95
2019-05-29T09:17:38.655Z,1014.96
2019-05-29T09:18:39.531Z,1014.91
2019-05-29T09:19:38.631Z,1015.01
2019-05-29T09:21:01.165Z,1015.00
2019-05-29T09:21:39.647Z,1014.95
2019-05-29T09:22:38.679Z,1014.93
2019-05-29T09:23:38.576Z,1014.92
2019-05-29T09:24:38.568Z,1014.97
2019-05-29T09:25:38.570Z,1014.94
2019-05-29T09:26:38.594Z,1014.93
2019-05-29T09:27:38.538Z,1014.96
2019-05-29T09:28:38.544Z,1014.96
2019-05-29T09:29:38.536Z,1014.95
2019-05-29T09:30:38.656Z,1014.93
2019-05-29T09:31:38.497Z,1014.94
2019-05-29T09:32:50.390Z,1014.93
2019-05-29T09:33:39.480Z,1014.90
2019-05-29T09:34:38.447Z,1014.97
2019-05-29T09:35:38.442Z,1014.94
2019-05-29T09:36:38.442Z,1014.99
2019-05-29T09:37:38.510Z,1015.04
2019-05-29T09:38:38.405Z,1015.04
2019-05-29T09:39:38.518Z,1015.03
2019-05-29T09:40:38.386Z,1015.05
2019-05-29T09:41:38.370Z,1015.09
2019-05-29T09:42:38.370Z,1015.13
2019-05-29T09:43:38.348Z,1015.12
2019-05-29T09:44:40.101Z,1015.10
2019-05-29T09:45:38.345Z,1015.09
2019-05-29T09:46:38.312Z,1015.05
2019-05-29T09:47:38.302Z,1015.14
2019-05-29T09:48:49.160Z,1015.12
2019-05-29T09:49:39.294Z,1015.08
2019-05-29T09:51:39.259Z,1015.08
2019-05-29T09:52:38.279Z,1015.12
2019-05-29T09:53:38.251Z,1015.21
2019-05-29T09:53:44.881Z,1015.10
2019-05-29T09:54:38.230Z,1015.20
2019-05-29T09:55:38.219Z,1015.20
2019-05-29T09:56:38.229Z,1015.13
2019-05-29T09:57:38.197Z,1015.22
2019-05-29T09:58:38.182Z,1015.16
2019-05-29T09:59:38.181Z,1015.20
2019-05-29T10:00:38.170Z,1015.19
2019-05-29T10:01:38.875Z,1015.18
2019-05-29T10:02:38.134Z,1015.23
2019-05-29T10:03:38.122Z,1015.30
2019-05-29T10:04:38.126Z,1015.26
2019-05-29T10:05:38.175Z,1015.28
2019-05-29T10:06:38.107Z,1015.29
2019-05-29T10:07:38.087Z,1015.29
2019-05-29T10:08:38.124Z,1015.33
2019-05-29T10:09:38.122Z,1015.32
2019-05-29T10:10:38.132Z,1015.30
2019-05-29T10:11:38.059Z,1015.28
2019-05-29T10:12:38.027Z,1015.36
2019-05-29T10:13:38.037Z,1015.29
2019-05-29T10:14:38.004Z,1015.31
2019-05-29T10:15:37.999Z,1015.29
2019-05-29T10:16:38.003Z,1015.30
2019-05-29T10:17:37.965Z,1015.46
2019-05-29T10:18:37.960Z,1015.39
2019-05-29T10:19:37.947Z,1015.36
2019-05-29T10:20:37.940Z,1015.34
2019-05-29T10:21:40.775Z,1015.36
2019-05-29T10:22:37.930Z,1015.41
2019-05-29T10:23:37.905Z,1015.37
2019-05-29T10:24:37.904Z,1015.26
2019-05-29T10:25:37.905Z,1015.30
2019-05-29T10:26:37.864Z,1015.32
2019-05-29T10:27:37.895Z,1015.28
2019-05-29T10:28:49.925Z,1015.27
2019-05-29T10:29:38.863Z,1015.32
2019-05-29T10:30:37.859Z,1015.32
2019-05-29T10:31:37.817Z,1015.20
2019-05-29T10:32:37.843Z,1015.34
2019-05-29T10:33:37.805Z,1015.38
2019-05-29T10:34:37.796Z,1015.36
2019-05-29T10:35:37.781Z,1015.42
2019-05-29T10:36:37.757Z,1015.41
2019-05-29T10:37:37.839Z,1015.44
2019-05-29T10:38:37.751Z,1015.50
2019-05-29T10:39:37.736Z,1015.43
2019-05-29T10:40:37.716Z,1015.44
2019-05-29T10:41:37.748Z,1015.41
2019-05-29T10:42:37.692Z,1015.35
2019-05-29T10:43:37.687Z,1015.38
2019-05-29T10:44:37.680Z,1015.39
2019-05-29T10:45:37.682Z,1015.43
2019-05-29T10:46:37.665Z,1015.43
2019-05-29T10:47:37.656Z,1015.40
2019-05-29T10:48:37.629Z,1015.37
2019-05-29T10:49:37.616Z,1015.40
2019-05-29T10:50:37.614Z,1015.37
2019-05-29T10:51:37.592Z,1015.46
2019-05-29T10:52:37.593Z,1015.45
2019-05-29T10:53:37.597Z,1015.48
2019-05-29T10:54:39.321Z,1015.39
2019-05-29T10:55:37.557Z,1015.51
2019-05-29T10:56:37.555Z,1015.51
2019-05-29T10:57:37.530Z,1015.45
2019-05-29T10:58:48.435Z,1015.50
2019-05-29T10:59:38.502Z,1015.53
2019-05-29T11:00:38.964Z,1015.61
2019-05-29T11:01:37.493Z,1015.60
2019-05-29T11:02:37.462Z,1015.54
2019-05-29T11:03:37.497Z,1015.59
2019-05-29T11:04:37.499Z,1015.55
2019-05-29T11:05:37.435Z,1015.56
2019-05-29T11:06:40.407Z,1015.53
2019-05-29T11:07:37.433Z,1015.55
2019-05-29T11:08:37.423Z,1015.55
2019-05-29T11:09:44.649Z,1015.46
2019-05-29T11:10:38.383Z,1015.50
2019-05-29T11:11:37.368Z,1015.47
2019-05-29T11:12:39.423Z,1015.51
2019-05-29T11:13:37.347Z,1015.52
2019-05-29T11:14:37.336Z,1015.50
2019-05-29T11:15:37.349Z,1015.38
2019-05-29T11:16:39.692Z,1015.55
2019-05-29T11:17:37.299Z,1015.48
2019-05-29T11:18:37.329Z,1015.52
2019-05-29T11:19:37.301Z,1015.52
2019-05-29T11:20:37.305Z,1015.51
2019-05-29T11:21:37.257Z,1015.47
2019-05-29T11:22:37.279Z,1015.47
2019-05-29T11:23:37.248Z,1015.39
2019-05-29T11:24:37.233Z,1015.40
2019-05-29T11:25:37.211Z,1015.45
2019-05-29T11:26:37.205Z,1015.42
2019-05-29T11:27:37.217Z,1015.44
2019-05-29T11:28:37.189Z,1015.41
2019-05-29T11:29:37.186Z,1015.48
2019-05-29T11:30:37.157Z,1015.46
2019-05-29T11:31:37.159Z,1015.54
2019-05-29T11:32:37.157Z,1015.49
2019-05-29T11:33:37.130Z,1015.52
2019-05-29T11:34:37.111Z,1015.50
2019-05-29T11:35:37.121Z,1015.48
2019-05-29T11:36:37.109Z,1015.39
2019-05-29T11:37:37.100Z,1015.53
2019-05-29T11:38:37.079Z,1015.53
2019-05-29T11:39:37.066Z,1015.53
2019-05-29T11:40:37.213Z,1015.45
2019-05-29T11:41:37.055Z,1015.41
2019-05-29T11:42:37.025Z,1015.44
2019-05-29T11:43:37.031Z,1015.50
2019-05-29T11:44:44.736Z,1015.43
2019-05-29T11:46:18.672Z,1015.47
2019-05-29T11:47:18.688Z,1015.50
2019-05-29T11:49:00.316Z,1015.54
2019-05-29T11:50:10.132Z,1015.51
2019-05-29T11:51:44.384Z,1015.49
2019-05-29T11:52:43.745Z,1015.45
2019-05-29T11:53:43.417Z,1015.50
2019-05-29T11:54:43.406Z,1015.48
2019-05-29T11:55:43.396Z,1015.55
2019-05-29T11:56:43.390Z,1015.57
2019-05-29T11:57:52.051Z,1015.56
2019-05-29T11:59:25.689Z,1015.51
2019-05-29T12:00:25.523Z,1015.45
2019-05-29T12:01:25.508Z,1015.48
2019-05-29T12:02:25.473Z,1015.43
2019-05-29T12:03:25.688Z,1015.38
2019-05-29T12:04:26.997Z,1015.43
2019-05-29T12:05:25.443Z,1015.40
2019-05-29T12:06:25.441Z,1015.55
2019-05-29T12:07:25.446Z,1015.41
2019-05-29T12:08:25.427Z,1015.36